Time;durP1;ratioP1;P1;durP2;ratioP2;P2;SDS_P1;SDS_P2;PMS_P1;PMS_P2;Temp;Humidity;BMP_temperature;BMP_pressure;BME280_temperature;BME280_humidity;BME280_pressure;Samples;Min_cycle;Max_cycle;Signal;HPM_P1;HPM_P2
2021/01/05 00:02:05;;;;;;;33.72;23.23;;;;;;;3.27;76.86;100889.38;4899230;29;20049;-68
2021/01/05 00:04:34;;;;;;;34.33;23.45;;;;;;;3.33;76.78;100880.97;4899338;29;20053;-73
2021/01/05 00:07:06;;;;;;;37.55;24.25;;;;;;;3.43;76.28;100891.13;4898434;29;20059;-71
2021/01/05 00:09:34;;;;;;;35.25;24.08;;;;;;;3.65;76.05;100901.88;4898459;29;20044;-68
2021/01/05 00:12:06;;;;;;;36.78;23.13;;;;;;;3.36;77.07;100887.81;4898576;29;20052;-68
2021/01/05 00:14:34;;;;;;;35.28;23.60;;;;;;;3.34;77.01;100884.53;4881954;29;20060;-66
2021/01/05 00:17:03;;;;;;;37.78;25.30;;;;;;;3.25;77.11;100881.47;4881557;29;20512;-68
2021/01/05 00:19:31;;;;;;;37.72;24.80;;;;;;;3.47;77.31;100889.50;4898513;29;20061;-70
2021/01/05 00:21:58;;;;;;;36.90;24.83;;;;;;;3.39;77.02;100887.28;4897127;29;20067;-69
2021/01/05 00:24:25;;;;;;;38.13;24.65;;;;;;;3.49;76.71;100887.34;4898519;29;20049;-66
2021/01/05 00:26:53;;;;;;;37.20;25.42;;;;;;;3.41;76.80;100882.41;4898584;29;20057;-67
2021/01/05 00:29:24;;;;;;;38.10;25.05;;;;;;;3.53;76.81;100885.75;4897515;29;20067;-67
2021/01/05 00:32:16;;;;;;;37.00;24.67;;;;;;;3.64;76.30;100887.44;4898374;29;20053;-66
2021/01/05 00:34:44;;;;;;;36.92;24.00;;;;;;;3.40;76.47;100883.47;4881183;29;20400;-69
2021/01/05 00:37:14;;;;;;;39.35;24.92;;;;;;;3.35;77.05;100886.16;4881878;29;20049;-69
2021/01/05 00:39:42;;;;;;;39.85;26.05;;;;;;;3.32;77.25;100887.53;4898502;29;20052;-69
2021/01/05 00:42:09;;;;;;;38.00;24.95;;;;;;;3.28;77.82;100891.00;4897738;29;20404;-70
2021/01/05 00:44:36;;;;;;;40.10;24.77;;;;;;;3.36;77.10;100899.50;4881406;29;20049;-70
2021/01/05 00:47:04;;;;;;;38.83;25.17;;;;;;;3.26;78.11;100888.56;4881551;29;20048;-70
2021/01/05 00:49:31;;;;;;;40.50;25.27;;;;;;;3.29;77.32;100881.78;4881267;29;20119;-69
2021/01/05 00:51:58;;;;;;;39.75;24.50;;;;;;;3.42;77.02;100884.84;4896982;29;20516;-71
2021/01/05 00:54:31;;;;;;;40.25;25.13;;;;;;;3.50;76.61;100894.44;4881558;29;20056;-70
2021/01/05 00:57:07;;;;;;;37.92;23.92;;;;;;;3.42;76.88;100886.75;4881215;29;20057;-68
2021/01/05 00:59:38;;;;;;;39.20;25.38;;;;;;;3.40;76.79;100891.63;4897136;29;20061;-70
2021/01/05 01:02:06;;;;;;;40.92;24.95;;;;;;;3.55;76.62;100885.47;4897019;29;20053;-71
2021/01/05 01:04:36;;;;;;;39.60;24.50;;;;;;;3.61;76.04;100887.16;4896718;29;20409;-71
2021/01/05 01:07:04;;;;;;;45.55;26.05;;;;;;;3.85;75.78;100886.47;4897557;29;20056;-70
2021/01/05 01:09:33;;;;;;;40.45;24.35;;;;;;;3.87;75.46;100883.50;4881021;29;20064;-68
2021/01/05 01:12:06;;;;;;;38.45;24.63;;;;;;;3.51;76.38;100897.97;4896480;29;20067;-69
2021/01/05 01:14:37;;;;;;;37.05;24.15;;;;;;;3.63;75.91;100899.41;4896359;29;20052;-69
2021/01/05 01:17:06;;;;;;;37.35;25.02;;;;;;;3.51;76.17;100890.63;4881011;29;20052;-68
2021/01/05 01:19:33;;;;;;;42.13;23.80;;;;;;;3.66;75.58;100890.72;4896427;29;20068;-66
2021/01/05 01:22:01;;;;;;;38.75;24.08;;;;;;;3.61;75.31;100892.59;4896934;29;20045;-66
2021/01/05 01:24:31;;;;;;;36.50;23.50;;;;;;;3.69;75.64;100894.81;4881219;29;20052;-65
2021/01/05 01:27:16;;;;;;;35.05;22.05;;;;;;;3.76;74.96;100892.69;4880837;29;20048;-65
2021/01/05 01:29:42;;;;;;;37.03;24.33;;;;;;;3.69;74.88;100894.81;4897849;29;20048;-70
2021/01/05 01:32:13;;;;;;;;;;;;;;;3.74;74.71;100895.69;4896408;29;20049;-66
2021/01/05 01:34:40;;;;;;;35.92;23.17;;;;;;;3.47;75.63;100897.66;4881415;29;19930;-67
2021/01/05 01:37:13;;;;;;;38.85;23.70;;;;;;;3.44;75.75;100892.75;4881287;29;20052;-65
2021/01/05 01:39:42;;;;;;;35.58;24.05;;;;;;;3.36;75.50;100901.44;4881721;29;20061;-69
2021/01/05 01:49:30;;;;;;;41.50;24.90;;;;;;;3.29;76.59;100895.38;4896059;29;20111;-64
2021/01/05 01:51:57;;;;;;;38.95;25.23;;;;;;;3.26;76.61;100898.63;4896592;29;20397;-64
2021/01/05 01:54:38;;;;;;;38.42;25.00;;;;;;;3.41;76.05;100899.56;4865332;29;20052;-68
2021/01/05 01:57:17;;;;;;;38.28;24.50;;;;;;;3.16;76.78;100895.81;4897237;29;20060;-68
2021/01/05 02:04:32;;;;;;;40.05;23.90;;;;;;;3.28;76.44;100910.06;4901426;29;20053;-67
2021/01/05 02:07:17;;;;;;;37.50;25.08;;;;;;;3.29;76.61;100901.66;4861463;29;20124;-64
2021/01/05 02:09:56;;;;;;;36.78;24.15;;;;;;;3.57;75.64;100905.94;4846258;29;20052;-67
2021/01/05 02:16:55;;;;;;;41.75;25.42;;;;;;;3.68;74.92;100895.91;4859484;29;20049;-67
2021/01/05 02:19:44;;;;;;;37.72;24.45;;;;;;;3.52;75.17;100916.78;4843096;29;20155;-65
2021/01/05 02:22:48;;;;;;;40.60;25.38;;;;;;;3.51;75.72;100904.25;4837292;29;20059;-65
2021/01/05 02:25:34;;;;;;;41.17;24.98;;;;;;;4.04;74.11;100895.84;4838252;29;20062;-66
2021/01/05 02:28:04;;;;;;;41.33;25.80;;;;;;;3.54;75.07;100906.44;4836376;29;20057;-66
2021/01/05 02:30:38;;;;;;;36.65;24.85;;;;;;;3.59;75.27;100903.78;4842578;29;20084;-70
2021/01/05 02:33:45;;;;;;;41.40;25.80;;;;;;;3.23;76.15;100908.13;4827637;29;20054;-68
2021/01/05 02:36:36;;;;;;;40.13;26.00;;;;;;;3.61;75.60;100907.03;4842528;29;20045;-69
2021/01/05 02:40:09;;;;;;;42.63;26.88;;;;;;;3.77;74.43;100905.22;4823914;29;20107;-69
2021/01/05 02:43:25;;;;;;;40.30;24.67;;;;;;;3.82;74.73;100900.59;4824448;29;20058;-71
2021/01/05 02:46:18;;;;;;;46.08;26.60;;;;;;;3.85;73.74;100893.81;4806436;29;20059;-68
2021/01/05 02:49:09;;;;;;;44.10;27.80;;;;;;;3.74;74.18;100906.56;4805765;29;20543;-69
2021/01/05 02:52:13;;;;;;;41.22;26.13;;;;;;;3.48;75.64;100902.06;4806675;29;20076;-68
2021/01/05 02:55:20;;;;;;;41.50;26.75;;;;;;;3.49;75.40;100900.97;4805947;29;20062;-69
2021/01/05 03:02:38;;;;;;;47.28;27.77;;;;;;;3.45;76.16;100903.38;4806338;29;20058;-69
2021/01/05 03:05:23;;;;;;;47.47;28.27;;;;;;;3.47;76.23;100898.50;4793427;29;20452;-66
2021/01/05 03:08:27;;;;;;;47.30;29.23;;;;;;;3.34;76.37;100893.53;4777470;30;20059;-69
2021/01/05 03:11:15;;;;;;;45.97;28.88;;;;;;;3.70;75.63;100899.16;4774508;30;20531;-66
2021/01/05 03:18:33;;;;;;;45.78;27.25;;;;;;;3.14;77.20;100887.09;4824028;29;20062;-65
2021/01/05 03:21:22;;;;;;;45.75;28.08;;;;;;;3.12;77.45;100892.00;4824175;29;20054;-68
2021/01/05 03:24:09;;;;;;;46.08;28.42;;;;;;;3.25;76.80;100888.81;4838705;29;20057;-68
2021/01/05 03:26:55;;;;;;;51.13;29.35;;;;;;;3.40;76.38;100888.91;4860474;29;20057;-67
2021/01/05 03:34:07;;;;;;;43.83;27.00;;;;;;;3.60;75.49;100880.88;4861042;29;20057;-66
2021/01/05 03:36:53;;;;;;;50.58;29.92;;;;;;;3.59;76.05;100884.69;4860707;29;20073;-67
2021/01/05 03:39:39;;;;;;;51.47;29.73;;;;;;;3.43;76.56;100882.97;4859930;29;20064;-65
2021/01/05 03:42:24;;;;;;;51.00;27.85;;;;;;;3.33;76.61;100885.59;4877551;29;20531;-66
2021/01/05 03:45:25;;;;;;;49.40;28.77;;;;;;;3.39;76.96;100884.56;4899666;29;20492;-65
2021/01/05 03:48:30;;;;;;;48.58;27.95;;;;;;;3.59;76.16;100871.09;4860775;29;20182;-66
2021/01/05 03:51:16;;;;;;;50.45;29.05;;;;;;;3.39;76.89;100888.09;4859533;29;20057;-65
2021/01/05 03:54:01;;;;;;;49.25;28.67;;;;;;;3.56;75.85;100876.25;4860190;29;20061;-66
2021/01/05 03:57:06;;;;;;;49.05;28.83;;;;;;;3.45;76.19;100881.59;4841294;29;20050;-67
2021/01/05 04:04:02;;;;;;;51.83;28.90;;;;;;;3.67;75.93;100880.63;4841265;29;20062;-67
2021/01/05 04:06:29;;;;;;;51.85;27.95;;;;;;;3.51;76.23;100877.00;4841210;29;20046;-68
2021/01/05 04:08:56;;;;;;;48.65;28.27;;;;;;;3.50;76.57;100880.84;4841070;29;20050;-68
2021/01/05 04:11:23;;;;;;;49.10;28.80;;;;;;;3.49;76.51;100875.66;4841456;29;20065;-66
2021/01/05 04:18:17;;;;;;;49.17;28.00;;;;;;;3.39;77.68;100873.66;4841543;29;20050;-66
2021/01/05 04:20:44;;;;;;;48.22;27.73;;;;;;;3.32;77.61;100875.81;4844365;29;20068;-65
2021/01/05 04:23:11;;;;;;;49.80;27.98;;;;;;;3.49;77.42;100881.91;4843267;29;20057;-65
2021/01/05 04:25:38;;;;;;;49.97;27.60;;;;;;;3.32;77.80;100878.53;4844228;29;20045;-66
2021/01/05 04:28:04;;;;;;;42.97;25.55;;;;;;;3.45;77.60;100883.53;4870174;29;20055;-65
2021/01/05 04:35:08;;;;;;;50.55;26.60;;;;;;;3.03;79.89;100879.94;4879786;29;20477;-67
2021/01/05 04:37:35;;;;;;;50.15;27.85;;;;;;;3.18;79.25;100869.16;4863506;29;20053;-65
2021/01/05 04:40:04;;;;;;;47.95;28.35;;;;;;;3.32;78.96;100871.19;4879906;29;20053;-68
2021/01/05 04:42:38;;;;;;;48.63;27.95;;;;;;;3.47;78.39;100865.00;4879797;29;20140;-68
2021/01/05 04:45:09;;;;;;;49.33;27.25;;;;;;;3.22;79.41;100875.72;4863653;29;20057;-66
2021/01/05 04:47:47;;;;;;;44.22;25.90;;;;;;;3.17;79.79;100862.91;4879220;29;20060;-68
2021/01/05 04:50:28;;;;;;;48.67;27.17;;;;;;;3.26;79.48;100855.88;4879593;29;20053;-68
2021/01/05 04:53:04;;;;;;;45.75;25.67;;;;;;;3.32;79.38;100865.75;4863203;29;20148;-66
2021/01/05 04:55:43;;;;;;;48.95;27.50;;;;;;;3.33;79.28;100863.81;4863007;29;20080;-68
2021/01/05 04:58:24;;;;;;;47.78;26.35;;;;;;;3.35;79.37;100867.94;4879757;29;20057;-69
2021/01/05 05:00:53;;;;;;;46.50;27.10;;;;;;;3.24;79.51;100865.41;4862862;29;20057;-69
2021/01/05 05:03:32;;;;;;;47.13;26.08;;;;;;;3.34;79.69;100873.63;4862705;29;20117;-68
2021/01/05 05:06:02;;;;;;;47.50;26.77;;;;;;;3.55;79.22;100859.06;4863382;29;20053;-68
2021/01/05 05:08:37;;;;;;;49.97;26.90;;;;;;;3.29;79.76;100873.59;4879305;29;20052;-68
2021/01/05 05:11:10;;;;;;;46.30;26.10;;;;;;;3.46;79.55;100871.53;4879148;29;20060;-69
2021/01/05 05:13:40;;;;;;;44.58;25.40;;;;;;;3.55;78.87;100867.25;4862460;29;20056;-69
2021/01/05 05:16:19;;;;;;;41.50;24.30;;;;;;;3.57;78.09;100866.97;4862482;29;20064;-72
2021/01/05 05:18:49;;;;;;;41.88;25.23;;;;;;;3.43;79.01;100870.16;4877543;29;20059;-68
2021/01/05 05:21:38;;;;;;;45.38;26.40;;;;;;;3.45;79.06;100870.72;4898080;29;20048;-68
2021/01/05 05:24:08;;;;;;;45.70;25.67;;;;;;;3.53;78.88;100860.41;4881555;29;20053;-70
2021/01/05 05:26:58;;;;;;;43.72;25.73;;;;;;;3.27;79.64;100876.59;4881041;29;20059;-71
2021/01/05 05:33:44;;;;;;;46.00;25.58;;;;;;;3.71;79.15;100862.69;4880507;29;20060;-69
2021/01/05 05:36:51;;;;;;;42.75;24.75;;;;;;;3.66;78.58;100860.75;4880852;29;20067;-68
2021/01/05 05:39:55;;;;;;;45.38;26.65;;;;;;;3.52;79.39;100865.06;4895773;29;20056;-69
2021/01/05 05:42:59;;;;;;;48.00;26.35;;;;;;;3.38;80.29;100869.31;4897595;29;20374;-67
2021/01/05 05:50:07;;;;;;;42.58;24.23;;;;;;;3.51;79.49;100866.13;4897431;29;20405;-69
2021/01/05 05:52:45;;;;;;;47.08;25.35;;;;;;;3.66;79.32;100863.47;4897538;29;20052;-69
2021/01/05 05:55:23;;;;;;;47.50;26.40;;;;;;;3.61;79.40;100865.38;4897559;29;20400;-66
2021/01/05 05:57:51;;;;;;;40.33;24.88;;;;;;;3.60;79.11;100869.16;4881008;29;20060;-67
2021/01/05 06:04:49;;;;;;;42.83;24.73;;;;;;;3.68;78.61;100871.41;4897498;29;20056;-68
2021/01/05 06:07:17;;;;;;;44.38;25.50;;;;;;;3.50;78.88;100878.09;4880798;29;20481;-69
2021/01/05 06:09:43;;;;;;;43.50;25.95;;;;;;;3.50;78.85;100874.56;4880682;29;20061;-68
2021/01/05 06:12:10;;;;;;;46.67;26.15;;;;;;;3.60;78.98;100864.53;4895793;29;20056;-69
2021/01/05 06:19:06;;;;;;;45.90;24.55;;;;;;;3.69;78.34;100870.31;4897114;29;20054;-67
2021/01/05 06:21:33;;;;;;;43.55;24.83;;;;;;;3.44;79.19;100879.16;4897503;29;20057;-67
2021/01/05 06:24:00;;;;;;;44.97;24.40;;;;;;;3.38;79.99;100872.03;4897026;29;20057;-67
2021/01/05 06:26:26;;;;;;;47.83;24.77;;;;;;;3.49;79.35;100872.94;4897081;29;20060;-67
2021/01/05 06:28:53;;;;;;;43.65;24.42;;;;;;;3.55;78.81;100880.03;4896147;29;20441;-69
2021/01/05 06:31:21;;;;;;;41.72;24.52;;;;;;;3.44;79.67;100882.69;4895933;29;20065;-69
2021/01/05 06:33:48;;;;;;;40.90;23.63;;;;;;;3.52;78.93;100886.00;4880786;29;20048;-67
2021/01/05 06:36:15;;;;;;;41.45;24.13;;;;;;;3.65;78.02;100870.03;4880722;29;20401;-68
2021/01/05 06:38:42;;;;;;;42.85;25.02;;;;;;;3.34;78.94;100885.34;4880673;29;20045;-67
2021/01/05 06:41:09;;;;;;;42.42;25.88;;;;;;;3.46;78.91;100874.25;4896558;29;20492;-67
2021/01/05 06:43:35;;;;;;;47.05;26.50;;;;;;;3.67;78.14;100869.75;4896695;29;20057;-67
2021/01/05 06:46:02;;;;;;;44.85;26.05;;;;;;;3.74;77.66;100876.59;4896834;29;20053;-69
2021/01/05 06:48:31;;;;;;;42.25;25.17;;;;;;;3.87;77.19;100878.84;4900627;29;20048;-68
2021/01/05 06:50:59;;;;;;;44.53;25.45;;;;;;;3.90;77.35;100874.78;4899674;29;20060;-67
2021/01/05 06:53:26;;;;;;;42.22;25.23;;;;;;;4.10;76.88;100881.13;4898668;29;20500;-69
2021/01/05 06:55:53;;;;;;;44.45;25.85;;;;;;;3.69;77.20;100894.81;4884354;29;20084;-66
2021/01/05 07:01:24;;;;;;;40.70;23.25;;;;;;;3.51;77.99;100896.06;5033352;23;20079;-66
2021/01/05 07:03:53;;;;;;;43.22;24.80;;;;;;;3.70;77.36;100885.56;4915987;29;20134;-68
2021/01/05 07:06:21;;;;;;;42.20;23.75;;;;;;;3.47;78.52;100890.34;4915032;29;20059;-68
2021/01/05 07:08:54;;;;;;;45.03;24.70;;;;;;;3.61;78.08;100890.69;4916459;29;20385;-70
2021/01/05 07:11:22;;;;;;;45.33;26.05;;;;;;;3.64;78.36;100890.19;4917856;29;20395;-71
2021/01/05 07:13:49;;;;;;;45.17;24.92;;;;;;;3.51;78.27;100893.34;4915719;29;20059;-73
2021/01/05 07:16:17;;;;;;;43.33;26.25;;;;;;;3.35;78.61;100891.59;4915933;29;20048;-70
2021/01/05 07:18:44;;;;;;;45.03;25.58;;;;;;;3.50;78.08;100894.44;4918209;29;20048;-69
2021/01/05 07:21:11;;;;;;;43.03;25.13;;;;;;;3.45;78.38;100897.13;4916280;29;20052;-68
2021/01/05 07:23:38;;;;;;;45.20;24.42;;;;;;;3.45;78.00;100902.59;4900791;29;20052;-69
2021/01/05 07:26:04;;;;;;;44.90;24.67;;;;;;;3.43;77.90;100899.28;4917208;29;20056;-70
2021/01/05 07:28:31;;;;;;;43.53;25.10;;;;;;;3.31;78.50;100906.84;4901439;29;20044;-69
2021/01/05 07:30:58;;;;;;;49.65;26.10;;;;;;;3.55;78.24;100899.91;4917824;29;20480;-72
2021/01/05 07:33:25;;;;;;;42.13;25.63;;;;;;;3.51;77.96;100908.84;4917161;29;20059;-71
2021/01/05 07:35:52;;;;;;;44.60;26.45;;;;;;;3.60;77.66;100905.41;4917541;29;20380;-70
2021/01/05 07:38:19;;;;;;;45.13;25.45;;;;;;;3.73;77.28;100893.22;4915798;29;20052;-70
2021/01/05 07:40:46;;;;;;;43.95;25.95;;;;;;;3.97;77.27;100891.69;4915952;29;20063;-70
2021/01/05 07:43:13;;;;;;;51.42;25.85;;;;;;;4.12;79.37;100898.03;4916579;29;20043;-69
2021/01/05 07:45:40;;;;;;;42.22;25.48;;;;;;;4.12;77.47;100905.38;4900289;29;20055;-68
2021/01/05 07:48:07;;;;;;;44.35;25.58;;;;;;;3.92;77.62;100905.31;4918198;29;20044;-69
2021/01/05 07:50:34;;;;;;;45.30;26.23;;;;;;;3.99;76.91;100911.34;4914859;29;20067;-68
2021/01/05 07:53:01;;;;;;;46.20;26.67;;;;;;;3.67;76.63;100919.59;4916505;29;20056;-69
2021/01/05 07:55:45;;;;;;;48.47;27.25;;;;;;;4.00;76.02;100916.50;4917180;29;20408;-69
2021/01/05 07:58:12;;;;;;;44.15;26.83;;;;;;;3.80;76.60;100930.03;4917304;29;20072;-69
2021/01/05 08:00:39;;;;;;;37.33;21.90;;;;;;;3.54;77.65;100941.03;4920621;29;20052;-68
2021/01/05 08:03:05;;;;;;;43.65;24.05;;;;;;;3.42;79.04;100935.75;4934021;29;20063;-69
2021/01/05 08:05:32;;;;;;;43.80;24.45;;;;;;;3.12;80.66;100940.97;4911281;29;20056;-69
2021/01/05 08:08:00;;;;;;;43.95;25.52;;;;;;;3.33;80.76;100942.75;4916465;29;20056;-70
2021/01/05 08:10:32;;;;;;;47.55;26.17;;;;;;;3.26;80.70;100943.00;4918899;29;20071;-70
2021/01/05 08:13:05;;;;;;;46.10;25.52;;;;;;;3.36;80.63;100942.25;4900985;29;20048;-70
2021/01/05 08:15:32;;;;;;;50.30;27.52;;;;;;;3.18;80.93;100945.38;4917448;29;20059;-69
2021/01/05 08:18:00;;;;;;;45.75;27.20;;;;;;;3.19;81.48;100945.09;4915879;29;20539;-70
2021/01/05 08:20:29;;;;;;;48.78;26.73;;;;;;;3.20;81.65;100945.94;4916124;29;20056;-69
2021/01/05 08:22:59;;;;;;;49.22;27.10;;;;;;;3.36;81.44;100948.50;4917462;29;20063;-68
2021/01/05 08:25:26;;;;;;;50.20;28.65;;;;;;;3.41;81.23;100940.41;4917772;29;20768;-70
2021/01/05 08:27:54;;;;;;;52.78;29.20;;;;;;;3.48;80.82;100953.78;4898246;29;20531;-69
2021/01/05 08:30:26;;;;;;;58.60;33.83;;;;;;;3.69;79.99;100954.75;4883564;29;20060;-69
2021/01/05 08:32:54;;;;;;;53.25;27.75;;;;;;;3.48;79.45;100956.50;4914917;29;20056;-69
2021/01/05 08:35:23;;;;;;;54.53;29.08;;;;;;;3.30;81.40;100960.44;4900442;29;20412;-69
2021/01/05 08:37:51;;;;;;;48.95;28.63;;;;;;;3.47;80.36;100946.69;4898916;29;20370;-69
2021/01/05 08:40:21;;;;;;;51.10;27.67;;;;;;;3.44;79.59;100966.28;4882141;29;20049;-69
2021/01/05 08:42:48;;;;;;;46.63;25.95;;;;;;;3.44;78.99;100960.81;4909766;29;20052;-70
2021/01/05 08:45:15;;;;;;;50.60;27.63;;;;;;;3.57;79.39;100960.41;4915343;29;20531;-68
2021/01/05 08:47:42;;;;;;;46.50;26.20;;;;;;;3.52;78.86;100952.19;4915766;29;20397;-69
2021/01/05 08:50:19;;;;;;;46.92;27.45;;;;;;;3.64;79.07;100955.53;4915537;29;20071;-68
2021/01/05 08:52:46;;;;;;;51.25;30.27;;;;;;;3.84;78.46;100963.84;4916282;29;20063;-64
2021/01/05 08:55:14;;;;;;;48.83;28.58;;;;;;;3.74;78.67;100961.06;4915616;29;20052;-64
2021/01/05 08:57:40;;;;;;;44.33;26.38;;;;;;;3.87;78.46;100959.78;4899417;29;20063;-65
2021/01/05 09:00:08;;;;;;;49.60;29.13;;;;;;;3.85;78.24;100956.50;4914411;29;20056;-65
2021/01/05 09:02:35;;;;;;;54.05;28.75;;;;;;;3.88;77.91;100962.22;4917357;29;20059;-65
2021/01/05 09:05:02;;;;;;;53.70;30.27;;;;;;;3.70;78.90;100964.53;4910087;29;20052;-63
2021/01/05 09:07:29;;;;;;;54.05;30.80;;;;;;;3.31;80.25;100958.56;4907327;29;20407;-64
2021/01/05 09:09:56;;;;;;;57.45;31.52;;;;;;;3.22;80.69;100962.84;4911957;29;20066;-64
2021/01/05 09:12:23;;;;;;;51.40;29.67;;;;;;;3.29;80.42;100964.25;4915849;29;20067;-64
2021/01/05 09:14:50;;;;;;;53.53;30.73;;;;;;;3.18;80.58;100958.97;4912136;29;20720;-65
2021/01/05 09:17:17;;;;;;;61.60;31.58;;;;;;;3.11;81.28;100956.47;4923474;29;20154;-65
2021/01/05 09:19:43;;;;;;;56.15;29.77;;;;;;;3.04;80.98;100955.88;4915226;29;20052;-62
2021/01/05 09:22:10;;;;;;;53.70;29.88;;;;;;;3.06;81.64;100955.59;4911563;29;20048;-65
2021/01/05 09:24:39;;;;;;;52.60;29.45;;;;;;;3.16;81.38;100963.84;4916885;29;20367;-64
2021/01/05 09:27:06;;;;;;;58.25;30.33;;;;;;;3.15;81.53;100962.22;4921800;29;20056;-63
2021/01/05 09:29:33;;;;;;;53.70;30.17;;;;;;;3.27;81.07;100966.41;4913255;29;20059;-64
2021/01/05 09:32:03;;;;;;;56.60;31.25;;;;;;;3.50;80.30;100967.13;4914295;29;20052;-63
2021/01/05 09:34:30;;;;;;;49.42;28.05;;;;;;;3.67;79.67;100965.91;4914438;29;20059;-63
2021/01/05 09:37:06;;;;;;;48.40;28.55;;;;;;;3.75;78.42;100972.78;4915639;29;20051;-63
2021/01/05 09:39:42;;;;;;;47.55;29.23;;;;;;;3.70;78.62;100968.09;4919417;29;20062;-64
2021/01/05 09:42:09;;;;;;;54.72;28.63;;;;;;;3.50;78.89;100967.97;4932692;29;20051;-66
2021/01/05 09:44:36;;;;;;;52.88;29.60;;;;;;;3.56;78.92;100975.06;4914465;29;20512;-63
2021/01/05 09:47:03;;;;;;;49.35;28.35;;;;;;;3.70;78.87;100978.16;4914045;29;20056;-64
2021/01/05 09:49:31;;;;;;;52.38;29.27;;;;;;;3.67;79.00;100987.69;4914115;29;20055;-64
2021/01/05 09:52:02;;;;;;;52.03;29.17;;;;;;;3.42;79.63;100988.31;4915059;29;20052;-66
2021/01/05 09:54:31;;;;;;;50.05;29.73;;;;;;;3.68;79.48;100983.09;4913752;29;20048;-66
2021/01/05 09:56:57;;;;;;;53.35;30.67;;;;;;;3.85;78.62;100987.28;4910604;29;20052;-63
2021/01/05 09:59:28;;;;;;;48.78;27.35;;;;;;;3.92;77.13;100997.94;4916338;29;20048;-62
2021/01/05 10:02:03;;;;;;;50.00;29.15;;;;;;;3.70;77.39;100992.63;4914920;29;20515;-63
2021/01/05 10:04:30;;;;;;;49.10;28.63;;;;;;;3.70;77.85;100984.44;4917668;29;20051;-62
2021/01/05 10:06:57;;;;;;;50.88;28.35;;;;;;;3.78;76.92;100991.31;4912114;29;20134;-64
2021/01/05 10:09:24;;;;;;;45.38;26.85;;;;;;;3.76;77.30;100990.75;4916657;29;20059;-64
2021/01/05 10:11:54;;;;;;;47.60;27.40;;;;;;;3.88;76.87;100994.94;4923986;29;20048;-65
2021/01/05 10:14:22;;;;;;;49.90;29.65;;;;;;;3.93;76.78;101000.41;4918720;29;20052;-65
2021/01/05 10:16:56;;;;;;;48.83;28.45;;;;;;;3.80;76.46;100989.94;4916790;29;20048;-64
2021/01/05 10:19:24;;;;;;;47.90;27.70;;;;;;;3.97;76.68;100995.25;4917148;29;20063;-65
2021/01/05 10:21:51;;;;;;;50.58;28.30;;;;;;;3.87;76.87;100989.75;4914246;29;20083;-64
2021/01/05 10:24:21;;;;;;;51.28;29.15;;;;;;;3.77;78.14;100993.22;4917689;29;20059;-63
2021/01/05 10:26:55;;;;;;;50.92;29.48;;;;;;;3.92;77.17;100995.22;4915397;29;20515;-63
2021/01/05 10:29:23;;;;;;;43.97;26.92;;;;;;;4.02;76.15;101000.72;4904873;29;20051;-64
2021/01/05 10:31:51;;;;;;;45.58;27.73;;;;;;;3.99;75.45;100990.38;4917172;29;20420;-65
2021/01/05 10:34:21;;;;;;;46.10;27.55;;;;;;;4.06;75.26;100994.47;4911731;29;20052;-66
2021/01/05 10:36:55;;;;;;;51.75;29.15;;;;;;;4.02;75.85;100990.66;4917772;29;20538;-62
2021/01/05 10:39:22;;;;;;;44.20;26.15;;;;;;;4.08;75.11;100997.75;4920584;29;20052;-64
2021/01/05 10:41:50;;;;;;;48.92;26.98;;;;;;;3.82;74.88;100976.91;4916855;29;20387;-65
2021/01/05 10:44:25;;;;;;;46.80;28.42;;;;;;;3.95;75.37;100990.06;4918411;29;20048;-65
2021/01/05 10:46:57;;;;;;;45.65;27.23;;;;;;;3.87;75.76;100992.47;4917332;29;20056;-64
2021/01/05 10:49:24;;;;;;;46.88;27.15;;;;;;;3.77;75.21;100990.50;4934159;29;20067;-66
2021/01/05 10:51:53;;;;;;;46.78;27.25;;;;;;;3.88;75.34;100989.47;4917092;29;20052;-62
2021/01/05 10:54:21;;;;;;;47.60;28.40;;;;;;;3.88;75.45;100989.47;4917667;29;21680;-61
2021/01/05 10:56:56;;;;;;;50.63;28.88;;;;;;;3.92;75.12;100990.59;4912472;29;20529;-64
2021/01/05 10:59:24;;;;;;;47.25;28.08;;;;;;;3.90;75.24;100994.66;4918315;29;20048;-64
2021/01/05 11:01:51;;;;;;;47.30;28.80;;;;;;;4.01;75.14;100990.94;4918407;29;20048;-66
2021/01/05 11:04:18;;;;;;;47.95;27.10;;;;;;;4.13;74.68;100988.81;4904062;29;20402;-64
2021/01/05 11:06:52;;;;;;;47.45;27.08;;;;;;;4.06;73.98;100985.50;4917263;29;20048;-65
2021/01/05 11:09:20;;;;;;;45.38;27.25;;;;;;;4.05;73.93;100990.13;4918023;29;20400;-65
2021/01/05 11:11:47;;;;;;;47.70;27.27;;;;;;;3.94;74.75;100987.63;4918283;29;20048;-64
2021/01/05 11:14:15;;;;;;;46.53;27.85;;;;;;;3.77;75.01;100985.03;4916611;29;20071;-63
2021/01/05 11:16:48;;;;;;;43.08;26.50;;;;;;;3.86;74.66;100988.91;4916498;29;20051;-65
2021/01/05 11:19:18;;;;;;;51.58;29.33;;;;;;;3.96;75.15;100980.81;4917617;29;20079;-64
2021/01/05 11:21:50;;;;;;;49.40;30.25;;;;;;;3.93;75.81;100983.22;4900939;29;20484;-65
2021/01/05 11:24:17;;;;;;;48.92;29.05;;;;;;;3.83;75.97;100981.28;4916265;29;20063;-65
2021/01/05 11:26:44;;;;;;;55.95;29.02;;;;;;;3.94;75.53;100979.44;4917827;29;20419;-64
2021/01/05 11:29:11;;;;;;;52.83;31.25;;;;;;;3.68;76.04;100975.72;4917212;29;20055;-64
2021/01/05 11:31:40;;;;;;;54.38;30.85;;;;;;;3.67;76.34;100981.41;4899391;29;20060;-64
2021/01/05 11:34:07;;;;;;;55.58;31.20;;;;;;;3.65;76.73;100969.97;4916601;29;20048;-64
2021/01/05 11:36:35;;;;;;;56.22;31.02;;;;;;;3.76;76.75;100975.25;4917821;29;20040;-64
2021/01/05 11:39:05;;;;;;;52.58;29.52;;;;;;;3.85;76.44;100981.00;4917932;29;20480;-65
2021/01/05 11:41:34;;;;;;;49.85;29.77;;;;;;;3.87;76.20;100973.41;4916790;29;20056;-65
2021/01/05 11:44:02;;;;;;;53.70;29.67;;;;;;;3.26;77.38;100972.13;4914832;29;20075;-64
2021/01/05 11:46:31;;;;;;;54.92;30.48;;;;;;;3.40;78.19;100965.97;4900719;29;20492;-63
2021/01/05 11:48:58;;;;;;;53.92;30.08;;;;;;;3.69;77.05;100963.75;4917402;29;20052;-64
2021/01/05 11:51:28;;;;;;;51.53;29.80;;;;;;;3.70;76.59;100962.66;4900594;29;20066;-64
2021/01/05 11:53:55;;;;;;;52.13;30.23;;;;;;;3.72;76.99;100970.56;4916167;29;20072;-65
2021/01/05 11:56:25;;;;;;;49.88;29.48;;;;;;;3.34;78.01;100963.47;4916332;29;20400;-65
2021/01/05 11:58:53;;;;;;;53.50;31.20;;;;;;;3.55;77.33;100969.91;4916544;29;20409;-63
2021/01/05 12:01:20;;;;;;;51.95;28.95;;;;;;;3.72;76.25;100960.50;4905871;29;20051;-66
2021/01/05 12:03:47;;;;;;;50.40;29.40;;;;;;;3.59;76.68;100962.84;4935328;29;20048;-64
2021/01/05 12:06:16;;;;;;;49.75;30.08;;;;;;;3.71;76.88;100956.13;4935580;29;20059;-64
2021/01/05 12:08:44;;;;;;;50.53;30.35;;;;;;;3.68;77.04;100959.38;4935662;29;20069;-65
2021/01/05 12:11:17;;;;;;;48.55;29.95;;;;;;;3.86;76.87;100958.13;4936198;29;20050;-65
2021/01/05 12:13:44;;;;;;;52.08;30.42;;;;;;;3.64;77.12;100954.72;4934712;29;20047;-64
2021/01/05 12:16:11;;;;;;;56.67;30.25;;;;;;;3.71;76.80;100956.13;4933425;29;20063;-64
2021/01/05 12:18:38;;;;;;;53.63;31.13;;;;;;;3.63;77.11;100958.53;4935601;29;20048;-64
2021/01/05 12:21:05;;;;;;;54.00;30.33;;;;;;;3.81;76.80;100950.75;4934013;29;20067;-62
2021/01/05 12:23:32;;;;;;;52.95;31.23;;;;;;;3.61;77.25;100955.25;4918537;29;20133;-63
2021/01/05 12:25:59;;;;;;;56.35;32.15;;;;;;;3.44;78.01;100952.66;4934699;29;20062;-64
2021/01/05 12:28:26;;;;;;;52.53;30.80;;;;;;;3.54;77.25;100943.75;4917796;29;20051;-64
2021/01/05 12:30:55;;;;;;;54.35;32.47;;;;;;;3.55;77.43;100943.50;4935007;29;20054;-63
2021/01/05 12:33:22;;;;;;;54.08;31.95;;;;;;;3.92;76.40;100946.19;4933428;29;20056;-64
2021/01/05 12:35:51;;;;;;;51.08;29.77;;;;;;;3.67;76.38;100937.84;4917398;29;20043;-66
2021/01/05 12:38:18;;;;;;;59.05;31.88;;;;;;;3.58;76.62;100942.97;4927265;29;20066;-63
2021/01/05 12:40:49;;;;;;;54.75;30.48;;;;;;;3.66;77.33;100933.50;4932114;29;20400;-64
2021/01/05 12:43:16;;;;;;;50.80;28.63;;;;;;;3.87;76.10;100937.97;4934474;29;20052;-63
2021/01/05 12:45:45;;;;;;;53.75;30.58;;;;;;;3.96;75.63;100928.19;4935327;29;20881;-64